sensor_id;sensor_type;location;lat;lon;timestamp;P1;durP1;ratioP1;P2;durP2;ratioP2
50219;SDS011;36110;51.536;7.562;2023-05-07T00:00:12;2.63;;;2.38;;
50219;SDS011;36110;51.536;7.562;2023-05-07T00:02:40;2.60;;;2.40;;
50219;SDS011;36110;51.536;7.562;2023-05-07T00:05:05;3.40;;;3.10;;
50219;SDS011;36110;51.536;7.562;2023-05-07T00:07:31;3.88;;;2.65;;
50219;SDS011;36110;51.536;7.562;2023-05-07T00:09:56;3.15;;;2.35;;
50219;SDS011;36110;51.536;7.562;2023-05-07T00:12:22;2.60;;;2.40;;
50219;SDS011;36110;51.536;7.562;2023-05-07T00:14:47;4.40;;;4.00;;
50219;SDS011;36110;51.536;7.562;2023-05-07T00:17:12;2.65;;;2.45;;
50219;SDS011;36110;51.536;7.562;2023-05-07T00:19:37;2.38;;;2.22;;
50219;SDS011;36110;51.536;7.562;2023-05-07T00:22:03;3.00;;;2.28;;
50219;SDS011;36110;51.536;7.562;2023-05-07T00:24:28;3.42;;;3.13;;
50219;SDS011;36110;51.536;7.562;2023-05-07T00:26:53;2.65;;;2.03;;
50219;SDS011;36110;51.536;7.562;2023-05-07T00:29:19;3.38;;;2.75;;
50219;SDS011;36110;51.536;7.562;2023-05-07T00:31:44;2.67;;;2.47;;
50219;SDS011;36110;51.536;7.562;2023-05-07T00:34:09;2.70;;;2.20;;
50219;SDS011;36110;51.536;7.562;2023-05-07T00:36:35;7.47;;;6.70;;
50219;SDS011;36110;51.536;7.562;2023-05-07T00:39:00;3.55;;;2.33;;
50219;SDS011;36110;51.536;7.562;2023-05-07T00:41:28;2.38;;;2.17;;
50219;SDS011;36110;51.536;7.562;2023-05-07T00:43:53;2.33;;;2.13;;
50219;SDS011;36110;51.536;7.562;2023-05-07T00:46:22;2.30;;;2.10;;
50219;SDS011;36110;51.536;7.562;2023-05-07T00:48:47;2.05;;;1.90;;
50219;SDS011;36110;51.536;7.562;2023-05-07T00:51:13;2.13;;;2.00;;
50219;SDS011;36110;51.536;7.562;2023-05-07T00:53:38;2.30;;;2.10;;
50219;SDS011;36110;51.536;7.562;2023-05-07T00:56:04;2.00;;;1.90;;
50219;SDS011;36110;51.536;7.562;2023-05-07T00:58:31;2.58;;;2.08;;
50219;SDS011;36110;51.536;7.562;2023-05-07T01:00:56;2.53;;;2.13;;
50219;SDS011;36110;51.536;7.562;2023-05-07T01:03:23;6.32;;;5.72;;
50219;SDS011;36110;51.536;7.562;2023-05-07T01:05:48;2.40;;;2.00;;
50219;SDS011;36110;51.536;7.562;2023-05-07T01:08:14;2.50;;;2.30;;
50219;SDS011;36110;51.536;7.562;2023-05-07T01:10:40;2.15;;;2.05;;
50219;SDS011;36110;51.536;7.562;2023-05-07T01:13:08;1.90;;;1.80;;
50219;SDS011;36110;51.536;7.562;2023-05-07T01:15:35;2.22;;;2.03;;
50219;SDS011;36110;51.536;7.562;2023-05-07T01:18:00;2.60;;;2.05;;
50219;SDS011;36110;51.536;7.562;2023-05-07T01:20:25;2.00;;;1.75;;
50219;SDS011;36110;51.536;7.562;2023-05-07T01:22:52;2.00;;;1.80;;
50219;SDS011;36110;51.536;7.562;2023-05-07T01:25:18;2.22;;;2.03;;
50219;SDS011;36110;51.536;7.562;2023-05-07T01:27:43;2.00;;;1.90;;
50219;SDS011;36110;51.536;7.562;2023-05-07T01:30:09;2.58;;;2.08;;
50219;SDS011;36110;51.536;7.562;2023-05-07T01:32:36;1.90;;;1.80;;
50219;SDS011;36110;51.536;7.562;2023-05-07T01:35:02;2.00;;;1.90;;
50219;SDS011;36110;51.536;7.562;2023-05-07T01:37:30;1.90;;;1.80;;
50219;SDS011;36110;51.536;7.562;2023-05-07T01:39:55;3.97;;;2.20;;
50219;SDS011;36110;51.536;7.562;2023-05-07T01:42:21;2.45;;;2.17;;
50219;SDS011;36110;51.536;7.562;2023-05-07T01:44:46;1.95;;;1.80;;
50219;SDS011;36110;51.536;7.562;2023-05-07T01:47:12;1.60;;;1.50;;
50219;SDS011;36110;51.536;7.562;2023-05-07T01:49:38;1.80;;;1.70;;
50219;SDS011;36110;51.536;7.562;2023-05-07T01:52:04;1.80;;;1.70;;
50219;SDS011;36110;51.536;7.562;2023-05-07T01:54:30;5.43;;;5.03;;
50219;SDS011;36110;51.536;7.562;2023-05-07T01:56:58;6.40;;;5.80;;
50219;SDS011;36110;51.536;7.562;2023-05-07T01:59:25;5.15;;;4.13;;
50219;SDS011;36110;51.536;7.562;2023-05-07T02:01:50;6.32;;;5.78;;
50219;SDS011;36110;51.536;7.562;2023-05-07T02:04:15;2.20;;;2.00;;
50219;SDS011;36110;51.536;7.562;2023-05-07T02:06:40;2.05;;;1.90;;
50219;SDS011;36110;51.536;7.562;2023-05-07T02:09:06;1.80;;;1.70;;
50219;SDS011;36110;51.536;7.562;2023-05-07T02:11:31;2.20;;;2.00;;
50219;SDS011;36110;51.536;7.562;2023-05-07T02:13:56;2.40;;;2.20;;
50219;SDS011;36110;51.536;7.562;2023-05-07T02:16:22;1.92;;;1.83;;
50219;SDS011;36110;51.536;7.562;2023-05-07T02:18:48;1.70;;;1.60;;
50219;SDS011;36110;51.536;7.562;2023-05-07T02:21:14;2.42;;;2.25;;
50219;SDS011;36110;51.536;7.562;2023-05-07T02:23:39;1.70;;;1.60;;
50219;SDS011;36110;51.536;7.562;2023-05-07T02:26:04;1.95;;;1.75;;
50219;SDS011;36110;51.536;7.562;2023-05-07T02:28:30;4.50;;;4.10;;
50219;SDS011;36110;51.536;7.562;2023-05-07T02:30:55;2.28;;;2.13;;
50219;SDS011;36110;51.536;7.562;2023-05-07T02:33:20;1.80;;;1.70;;
50219;SDS011;36110;51.536;7.562;2023-05-07T02:35:46;3.05;;;2.85;;
50219;SDS011;36110;51.536;7.562;2023-05-07T02:38:11;6.50;;;5.68;;
50219;SDS011;36110;51.536;7.562;2023-05-07T02:40:36;2.65;;;2.00;;
50219;SDS011;36110;51.536;7.562;2023-05-07T02:43:05;8.13;;;6.53;;
50219;SDS011;36110;51.536;7.562;2023-05-07T02:45:31;1.90;;;1.80;;
50219;SDS011;36110;51.536;7.562;2023-05-07T02:47:57;6.00;;;4.63;;
50219;SDS011;36110;51.536;7.562;2023-05-07T02:50:23;1.85;;;1.75;;
50219;SDS011;36110;51.536;7.562;2023-05-07T02:52:48;3.25;;;2.95;;
50219;SDS011;36110;51.536;7.562;2023-05-07T02:55:13;3.17;;;2.47;;
50219;SDS011;36110;51.536;7.562;2023-05-07T02:57:39;2.33;;;2.10;;
50219;SDS011;36110;51.536;7.562;2023-05-07T03:00:22;5.30;;;4.80;;
50219;SDS011;36110;51.536;7.562;2023-05-07T03:02:48;5.47;;;4.93;;
50219;SDS011;36110;51.536;7.562;2023-05-07T03:05:13;2.40;;;2.22;;
50219;SDS011;36110;51.536;7.562;2023-05-07T03:07:39;9.57;;;7.50;;
50219;SDS011;36110;51.536;7.562;2023-05-07T03:10:06;6.18;;;5.57;;
50219;SDS011;36110;51.536;7.562;2023-05-07T03:12:31;5.18;;;4.78;;
50219;SDS011;36110;51.536;7.562;2023-05-07T03:14:56;1.70;;;1.60;;
50219;SDS011;36110;51.536;7.562;2023-05-07T03:17:22;1.80;;;1.70;;
50219;SDS011;36110;51.536;7.562;2023-05-07T03:19:47;1.92;;;1.83;;
50219;SDS011;36110;51.536;7.562;2023-05-07T03:22:12;2.35;;;2.15;;
50219;SDS011;36110;51.536;7.562;2023-05-07T03:24:38;2.33;;;1.73;;
50219;SDS011;36110;51.536;7.562;2023-05-07T03:27:03;1.70;;;1.60;;
50219;SDS011;36110;51.536;7.562;2023-05-07T03:29:28;7.00;;;6.28;;
50219;SDS011;36110;51.536;7.562;2023-05-07T03:31:54;2.78;;;2.15;;
50219;SDS011;36110;51.536;7.562;2023-05-07T03:34:19;3.33;;;2.83;;
50219;SDS011;36110;51.536;7.562;2023-05-07T03:36:47;6.95;;;4.70;;
50219;SDS011;36110;51.536;7.562;2023-05-07T03:39:13;1.73;;;1.63;;
50219;SDS011;36110;51.536;7.562;2023-05-07T03:41:38;6.72;;;6.07;;
50219;SDS011;36110;51.536;7.562;2023-05-07T03:44:04;7.07;;;6.38;;
50219;SDS011;36110;51.536;7.562;2023-05-07T03:46:29;1.52;;;1.42;;
50219;SDS011;36110;51.536;7.562;2023-05-07T03:48:55;2.85;;;2.42;;
50219;SDS011;36110;51.536;7.562;2023-05-07T03:51:20;1.58;;;1.48;;
50219;SDS011;36110;51.536;7.562;2023-05-07T03:53:45;1.50;;;1.40;;
50219;SDS011;36110;51.536;7.562;2023-05-07T03:56:11;3.45;;;2.42;;
50219;SDS011;36110;51.536;7.562;2023-05-07T03:58:36;1.63;;;1.52;;
50219;SDS011;36110;51.536;7.562;2023-05-07T04:01:01;1.55;;;1.45;;
50219;SDS011;36110;51.536;7.562;2023-05-07T04:03:27;2.70;;;2.20;;
50219;SDS011;36110;51.536;7.562;2023-05-07T04:05:53;5.65;;;4.95;;
50219;SDS011;36110;51.536;7.562;2023-05-07T04:08:19;2.00;;;1.90;;
50219;SDS011;36110;51.536;7.562;2023-05-07T04:10:44;5.47;;;4.97;;
50219;SDS011;36110;51.536;7.562;2023-05-07T04:13:10;11.85;;;9.98;;
50219;SDS011;36110;51.536;7.562;2023-05-07T04:15:36;2.50;;;2.30;;
50219;SDS011;36110;51.536;7.562;2023-05-07T04:18:01;6.45;;;5.88;;
50219;SDS011;36110;51.536;7.562;2023-05-07T04:20:26;14.82;;;11.02;;
50219;SDS011;36110;51.536;7.562;2023-05-07T04:22:52;2.35;;;1.80;;
50219;SDS011;36110;51.536;7.562;2023-05-07T04:25:17;6.63;;;5.47;;
50219;SDS011;36110;51.536;7.562;2023-05-07T04:27:42;2.88;;;2.55;;
50219;SDS011;36110;51.536;7.562;2023-05-07T04:30:08;3.15;;;2.30;;
50219;SDS011;36110;51.536;7.562;2023-05-07T04:32:33;8.15;;;5.95;;
50219;SDS011;36110;51.536;7.562;2023-05-07T04:34:58;6.63;;;5.20;;
50219;SDS011;36110;51.536;7.562;2023-05-07T04:37:25;9.32;;;8.10;;
50219;SDS011;36110;51.536;7.562;2023-05-07T04:39:50;10.52;;;7.57;;
50219;SDS011;36110;51.536;7.562;2023-05-07T04:42:16;8.70;;;7.90;;
50219;SDS011;36110;51.536;7.562;2023-05-07T04:44:43;5.55;;;5.00;;
50219;SDS011;36110;51.536;7.562;2023-05-07T04:47:08;1.65;;;1.55;;
50219;SDS011;36110;51.536;7.562;2023-05-07T04:49:34;1.60;;;1.50;;
50219;SDS011;36110;51.536;7.562;2023-05-07T04:51:59;1.58;;;1.48;;
50219;SDS011;36110;51.536;7.562;2023-05-07T04:54:24;7.15;;;5.78;;
50219;SDS011;36110;51.536;7.562;2023-05-07T04:56:50;5.32;;;4.82;;
50219;SDS011;36110;51.536;7.562;2023-05-07T04:59:15;1.70;;;1.60;;
50219;SDS011;36110;51.536;7.562;2023-05-07T05:01:40;2.10;;;1.95;;
50219;SDS011;36110;51.536;7.562;2023-05-07T05:04:06;3.63;;;3.33;;
50219;SDS011;36110;51.536;7.562;2023-05-07T05:06:32;3.53;;;1.73;;
50219;SDS011;36110;51.536;7.562;2023-05-07T05:08:57;5.60;;;4.85;;
50219;SDS011;36110;51.536;7.562;2023-05-07T05:11:23;8.95;;;8.00;;
50219;SDS011;36110;51.536;7.562;2023-05-07T05:13:48;10.60;;;9.38;;
50219;SDS011;36110;51.536;7.562;2023-05-07T05:16:14;6.85;;;5.38;;
50219;SDS011;36110;51.536;7.562;2023-05-07T05:18:40;11.25;;;7.80;;
50219;SDS011;36110;51.536;7.562;2023-05-07T05:21:05;7.57;;;6.55;;
50219;SDS011;36110;51.536;7.562;2023-05-07T05:23:31;6.53;;;5.93;;
50219;SDS011;36110;51.536;7.562;2023-05-07T05:25:56;11.30;;;6.90;;
50219;SDS011;36110;51.536;7.562;2023-05-07T05:28:24;10.48;;;6.32;;
50219;SDS011;36110;51.536;7.562;2023-05-07T05:33:15;11.80;;;6.25;;
50219;SDS011;36110;51.536;7.562;2023-05-07T05:35:41;5.97;;;4.05;;
50219;SDS011;36110;51.536;7.562;2023-05-07T05:38:06;6.25;;;4.82;;
50219;SDS011;36110;51.536;7.562;2023-05-07T05:40:31;6.18;;;5.57;;
50219;SDS011;36110;51.536;7.562;2023-05-07T05:42:58;5.35;;;4.90;;
50219;SDS011;36110;51.536;7.562;2023-05-07T05:45:23;2.63;;;2.42;;
50219;SDS011;36110;51.536;7.562;2023-05-07T05:47:49;6.00;;;5.03;;
50219;SDS011;36110;51.536;7.562;2023-05-07T05:50:14;1.25;;;1.20;;
50219;SDS011;36110;51.536;7.562;2023-05-07T05:52:39;7.40;;;5.68;;
50219;SDS011;36110;51.536;7.562;2023-05-07T05:55:05;5.32;;;3.83;;
50219;SDS011;36110;51.536;7.562;2023-05-07T05:57:31;6.22;;;4.15;;
50219;SDS011;36110;51.536;7.562;2023-05-07T05:59:56;3.90;;;2.53;;
50219;SDS011;36110;51.536;7.562;2023-05-07T06:02:22;6.93;;;4.13;;
50219;SDS011;36110;51.536;7.562;2023-05-07T06:04:47;7.40;;;4.65;;
50219;SDS011;36110;51.536;7.562;2023-05-07T06:07:12;6.00;;;4.10;;
50219;SDS011;36110;51.536;7.562;2023-05-07T06:09:38;4.13;;;3.78;;
50219;SDS011;36110;51.536;7.562;2023-05-07T06:12:03;6.93;;;6.13;;
50219;SDS011;36110;51.536;7.562;2023-05-07T06:14:28;8.23;;;6.00;;
50219;SDS011;36110;51.536;7.562;2023-05-07T06:16:54;4.15;;;3.50;;
50219;SDS011;36110;51.536;7.562;2023-05-07T06:19:19;5.50;;;4.97;;
50219;SDS011;36110;51.536;7.562;2023-05-07T06:21:48;8.43;;;5.53;;
50219;SDS011;36110;51.536;7.562;2023-05-07T06:24:13;6.32;;;5.45;;
50219;SDS011;36110;51.536;7.562;2023-05-07T06:26:39;4.93;;;4.43;;
50219;SDS011;36110;51.536;7.562;2023-05-07T06:29:04;7.00;;;4.43;;
50219;SDS011;36110;51.536;7.562;2023-05-07T06:31:30;5.78;;;5.20;;
50219;SDS011;36110;51.536;7.562;2023-05-07T06:33:56;6.25;;;4.80;;
50219;SDS011;36110;51.536;7.562;2023-05-07T06:36:22;6.60;;;5.93;;
50219;SDS011;36110;51.536;7.562;2023-05-07T06:38:47;1.65;;;1.55;;
50219;SDS011;36110;51.536;7.562;2023-05-07T06:41:12;6.32;;;5.72;;
50219;SDS011;36110;51.536;7.562;2023-05-07T06:43:38;7.20;;;6.40;;
50219;SDS011;36110;51.536;7.562;2023-05-07T06:46:03;7.03;;;6.32;;
50219;SDS011;36110;51.536;7.562;2023-05-07T06:48:28;7.13;;;6.22;;
50219;SDS011;36110;51.536;7.562;2023-05-07T06:50:54;6.25;;;5.38;;
50219;SDS011;36110;51.536;7.562;2023-05-07T06:53:20;3.97;;;3.67;;
50219;SDS011;36110;51.536;7.562;2023-05-07T06:55:45;7.88;;;6.75;;
50219;SDS011;36110;51.536;7.562;2023-05-07T06:58:11;9.45;;;6.40;;
50219;SDS011;36110;51.536;7.562;2023-05-07T07:00:36;5.03;;;3.88;;
50219;SDS011;36110;51.536;7.562;2023-05-07T07:03:01;9.38;;;7.05;;
50219;SDS011;36110;51.536;7.562;2023-05-07T07:05:27;2.33;;;2.13;;
50219;SDS011;36110;51.536;7.562;2023-05-07T07:07:52;8.95;;;5.70;;
50219;SDS011;36110;51.536;7.562;2023-05-07T07:10:20;5.07;;;4.53;;
50219;SDS011;36110;51.536;7.562;2023-05-07T07:12:46;8.30;;;7.25;;
50219;SDS011;36110;51.536;7.562;2023-05-07T07:15:13;2.47;;;2.05;;
50219;SDS011;36110;51.536;7.562;2023-05-07T07:17:38;9.43;;;8.10;;
50219;SDS011;36110;51.536;7.562;2023-05-07T07:20:04;9.52;;;7.55;;
50219;SDS011;36110;51.536;7.562;2023-05-07T07:22:30;3.67;;;3.33;;
50219;SDS011;36110;51.536;7.562;2023-05-07T07:24:55;11.90;;;8.57;;
50219;SDS011;36110;51.536;7.562;2023-05-07T07:27:20;12.50;;;9.73;;
50219;SDS011;36110;51.536;7.562;2023-05-07T07:29:46;2.28;;;2.15;;
50219;SDS011;36110;51.536;7.562;2023-05-07T07:32:11;5.55;;;5.00;;
50219;SDS011;36110;51.536;7.562;2023-05-07T07:34:36;13.10;;;10.27;;
50219;SDS011;36110;51.536;7.562;2023-05-07T07:37:02;8.75;;;7.38;;
50219;SDS011;36110;51.536;7.562;2023-05-07T07:39:30;7.38;;;6.03;;
50219;SDS011;36110;51.536;7.562;2023-05-07T07:41:56;9.40;;;8.45;;
50219;SDS011;36110;51.536;7.562;2023-05-07T07:44:21;11.95;;;9.63;;
50219;SDS011;36110;51.536;7.562;2023-05-07T07:46:46;12.63;;;11.43;;
50219;SDS011;36110;51.536;7.562;2023-05-07T07:49:12;12.82;;;11.52;;
50219;SDS011;36110;51.536;7.562;2023-05-07T07:51:37;13.52;;;12.10;;
50219;SDS011;36110;51.536;7.562;2023-05-07T07:54:02;17.30;;;12.32;;
50219;SDS011;36110;51.536;7.562;2023-05-07T07:56:28;15.25;;;13.63;;
50219;SDS011;36110;51.536;7.562;2023-05-07T07:58:53;15.00;;;13.20;;
50219;SDS011;36110;51.536;7.562;2023-05-07T08:01:19;7.43;;;6.70;;
50219;SDS011;36110;51.536;7.562;2023-05-07T08:03:44;15.30;;;13.68;;
50219;SDS011;36110;51.536;7.562;2023-05-07T08:06:10;13.32;;;10.32;;
50219;SDS011;36110;51.536;7.562;2023-05-07T08:08:35;18.25;;;14.07;;
50219;SDS011;36110;51.536;7.562;2023-05-07T08:11:00;15.63;;;13.57;;
50219;SDS011;36110;51.536;7.562;2023-05-07T08:13:26;11.00;;;8.68;;
50219;SDS011;36110;51.536;7.562;2023-05-07T08:15:51;5.00;;;4.57;;
50219;SDS011;36110;51.536;7.562;2023-05-07T08:18:17;10.10;;;8.63;;
50219;SDS011;36110;51.536;7.562;2023-05-07T08:20:42;13.23;;;11.90;;
50219;SDS011;36110;51.536;7.562;2023-05-07T08:23:08;12.90;;;11.52;;
50219;SDS011;36110;51.536;7.562;2023-05-07T08:25:33;12.13;;;10.95;;
50219;SDS011;36110;51.536;7.562;2023-05-07T08:27:59;18.85;;;13.13;;
50219;SDS011;36110;51.536;7.562;2023-05-07T08:30:25;10.80;;;7.78;;
50219;SDS011;36110;51.536;7.562;2023-05-07T08:32:50;14.43;;;12.98;;
50219;SDS011;36110;51.536;7.562;2023-05-07T08:35:15;9.65;;;8.77;;
50219;SDS011;36110;51.536;7.562;2023-05-07T08:37:40;11.10;;;10.00;;
50219;SDS011;36110;51.536;7.562;2023-05-07T08:40:06;6.55;;;5.78;;
50219;SDS011;36110;51.536;7.562;2023-05-07T08:42:32;14.48;;;11.93;;
50219;SDS011;36110;51.536;7.562;2023-05-07T08:45:01;14.07;;;11.90;;
50219;SDS011;36110;51.536;7.562;2023-05-07T08:47:32;10.20;;;8.80;;
50219;SDS011;36110;51.536;7.562;2023-05-07T08:50:01;14.73;;;12.82;;
50219;SDS011;36110;51.536;7.562;2023-05-07T08:52:27;11.38;;;10.20;;
50219;SDS011;36110;51.536;7.562;2023-05-07T08:54:52;12.45;;;11.10;;
50219;SDS011;36110;51.536;7.562;2023-05-07T08:57:17;12.65;;;10.82;;
50219;SDS011;36110;51.536;7.562;2023-05-07T08:59:44;15.10;;;13.07;;
50219;SDS011;36110;51.536;7.562;2023-05-07T09:02:10;14.15;;;12.65;;
50219;SDS011;36110;51.536;7.562;2023-05-07T09:04:36;17.08;;;13.77;;
50219;SDS011;36110;51.536;7.562;2023-05-07T09:07:01;15.05;;;13.02;;
50219;SDS011;36110;51.536;7.562;2023-05-07T09:09:30;15.77;;;13.40;;
50219;SDS011;36110;51.536;7.562;2023-05-07T09:11:57;16.10;;;13.07;;
50219;SDS011;36110;51.536;7.562;2023-05-07T09:14:27;12.25;;;10.75;;
50219;SDS011;36110;51.536;7.562;2023-05-07T09:16:52;12.43;;;11.15;;
50219;SDS011;36110;51.536;7.562;2023-05-07T09:19:22;16.00;;;13.75;;
50219;SDS011;36110;51.536;7.562;2023-05-07T09:21:57;7.70;;;6.95;;
50219;SDS011;36110;51.536;7.562;2023-05-07T09:26:53;9.32;;;8.25;;
50219;SDS011;36110;51.536;7.562;2023-05-07T09:29:20;9.77;;;8.77;;
50219;SDS011;36110;51.536;7.562;2023-05-07T09:31:45;17.35;;;12.57;;
50219;SDS011;36110;51.536;7.562;2023-05-07T09:34:11;13.95;;;11.85;;
50219;SDS011;36110;51.536;7.562;2023-05-07T09:36:36;12.93;;;11.38;;
50219;SDS011;36110;51.536;7.562;2023-05-07T09:39:01;12.85;;;11.65;;
50219;SDS011;36110;51.536;7.562;2023-05-07T09:41:27;13.43;;;12.00;;
50219;SDS011;36110;51.536;7.562;2023-05-07T09:43:55;14.02;;;12.55;;
50219;SDS011;36110;51.536;7.562;2023-05-07T09:46:21;14.40;;;12.82;;
50219;SDS011;36110;51.536;7.562;2023-05-07T09:48:50;15.27;;;13.13;;
50219;SDS011;36110;51.536;7.562;2023-05-07T09:51:30;15.15;;;12.63;;
50219;SDS011;36110;51.536;7.562;2023-05-07T09:53:59;29.23;;;13.43;;
50219;SDS011;36110;51.536;7.562;2023-05-07T09:56:27;13.52;;;11.43;;
50219;SDS011;36110;51.536;7.562;2023-05-07T09:58:54;13.30;;;10.95;;
50219;SDS011;36110;51.536;7.562;2023-05-07T10:01:21;15.75;;;12.38;;
50219;SDS011;36110;51.536;7.562;2023-05-07T10:03:49;13.38;;;11.55;;
50219;SDS011;36110;51.536;7.562;2023-05-07T10:06:16;15.65;;;12.40;;
50219;SDS011;36110;51.536;7.562;2023-05-07T10:08:42;14.35;;;11.73;;
50219;SDS011;36110;51.536;7.562;2023-05-07T10:11:08;15.18;;;12.32;;
50219;SDS011;36110;51.536;7.562;2023-05-07T10:13:34;13.63;;;11.05;;
50219;SDS011;36110;51.536;7.562;2023-05-07T10:16:05;12.07;;;10.88;;
50219;SDS011;36110;51.536;7.562;2023-05-07T10:18:31;13.35;;;11.10;;
50219;SDS011;36110;51.536;7.562;2023-05-07T10:23:49;14.70;;;11.35;;
50219;SDS011;36110;51.536;7.562;2023-05-07T10:26:15;15.25;;;12.90;;
50219;SDS011;36110;51.536;7.562;2023-05-07T10:28:43;17.75;;;13.30;;
50219;SDS011;36110;51.536;7.562;2023-05-07T10:31:14;14.75;;;12.77;;
50219;SDS011;36110;51.536;7.562;2023-05-07T10:33:51;15.82;;;12.30;;
50219;SDS011;36110;51.536;7.562;2023-05-07T10:36:18;13.38;;;10.60;;
50219;SDS011;36110;51.536;7.562;2023-05-07T10:38:43;13.82;;;11.82;;
50219;SDS011;36110;51.536;7.562;2023-05-07T10:41:09;13.13;;;11.27;;
50219;SDS011;36110;51.536;7.562;2023-05-07T10:43:42;14.38;;;12.05;;
50219;SDS011;36110;51.536;7.562;2023-05-07T10:46:14;15.23;;;12.38;;
50219;SDS011;36110;51.536;7.562;2023-05-07T10:51:28;11.60;;;10.40;;
50219;SDS011;36110;51.536;7.562;2023-05-07T10:56:39;13.68;;;12.07;;
50219;SDS011;36110;51.536;7.562;2023-05-07T11:01:52;14.50;;;12.43;;
50219;SDS011;36110;51.536;7.562;2023-05-07T11:04:19;12.98;;;10.85;;
50219;SDS011;36110;51.536;7.562;2023-05-07T11:15:00;16.20;;;11.77;;
50219;SDS011;36110;51.536;7.562;2023-05-07T11:17:29;15.02;;;12.65;;
50219;SDS011;36110;51.536;7.562;2023-05-07T11:19:56;13.38;;;11.60;;
50219;SDS011;36110;51.536;7.562;2023-05-07T11:24:57;16.25;;;11.85;;
50219;SDS011;36110;51.536;7.562;2023-05-07T11:27:24;13.82;;;11.98;;
50219;SDS011;36110;51.536;7.562;2023-05-07T11:29:50;15.35;;;12.48;;
50219;SDS011;36110;51.536;7.562;2023-05-07T11:34:43;18.00;;;11.88;;
50219;SDS011;36110;51.536;7.562;2023-05-07T11:37:09;13.40;;;11.88;;
50219;SDS011;36110;51.536;7.562;2023-05-07T11:39:34;12.57;;;10.93;;
50219;SDS011;36110;51.536;7.562;2023-05-07T11:42:01;13.02;;;11.63;;
50219;SDS011;36110;51.536;7.562;2023-05-07T11:44:45;14.70;;;12.25;;
50219;SDS011;36110;51.536;7.562;2023-05-07T11:47:11;13.52;;;11.52;;
50219;SDS011;36110;51.536;7.562;2023-05-07T11:49:36;13.80;;;11.25;;
50219;SDS011;36110;51.536;7.562;2023-05-07T11:52:02;14.10;;;11.57;;
50219;SDS011;36110;51.536;7.562;2023-05-07T11:54:34;13.88;;;10.93;;
50219;SDS011;36110;51.536;7.562;2023-05-07T11:57:00;13.63;;;10.90;;
50219;SDS011;36110;51.536;7.562;2023-05-07T11:59:26;12.02;;;10.73;;
50219;SDS011;36110;51.536;7.562;2023-05-07T12:01:51;11.52;;;9.38;;
50219;SDS011;36110;51.536;7.562;2023-05-07T12:04:19;12.07;;;10.43;;
50219;SDS011;36110;51.536;7.562;2023-05-07T12:06:45;15.13;;;10.43;;
50219;SDS011;36110;51.536;7.562;2023-05-07T12:09:10;10.73;;;9.18;;
50219;SDS011;36110;51.536;7.562;2023-05-07T12:11:36;11.20;;;9.18;;
50219;SDS011;36110;51.536;7.562;2023-05-07T12:14:04;10.57;;;9.20;;
50219;SDS011;36110;51.536;7.562;2023-05-07T12:16:30;10.55;;;9.30;;
50219;SDS011;36110;51.536;7.562;2023-05-07T12:18:55;11.52;;;9.88;;
50219;SDS011;36110;51.536;7.562;2023-05-07T12:21:23;10.00;;;9.00;;
50219;SDS011;36110;51.536;7.562;2023-05-07T12:23:50;11.88;;;9.25;;
50219;SDS011;36110;51.536;7.562;2023-05-07T12:26:15;12.18;;;8.27;;
50219;SDS011;36110;51.536;7.562;2023-05-07T12:28:40;9.88;;;8.85;;
50219;SDS011;36110;51.536;7.562;2023-05-07T12:31:06;11.05;;;8.15;;
50219;SDS011;36110;51.536;7.562;2023-05-07T12:33:32;11.30;;;8.43;;
50219;SDS011;36110;51.536;7.562;2023-05-07T12:35:58;10.55;;;7.80;;
50219;SDS011;36110;51.536;7.562;2023-05-07T12:38:23;9.05;;;8.15;;
50219;SDS011;36110;51.536;7.562;2023-05-07T12:40:50;9.48;;;8.38;;
50219;SDS011;36110;51.536;7.562;2023-05-07T12:43:23;10.45;;;8.38;;
50219;SDS011;36110;51.536;7.562;2023-05-07T12:45:50;9.00;;;8.10;;
50219;SDS011;36110;51.536;7.562;2023-05-07T12:48:16;8.77;;;7.88;;
50219;SDS011;36110;51.536;7.562;2023-05-07T12:50:42;12.75;;;8.38;;
50219;SDS011;36110;51.536;7.562;2023-05-07T12:53:08;9.68;;;8.65;;
50219;SDS011;36110;51.536;7.562;2023-05-07T12:58:15;9.82;;;7.60;;
50219;SDS011;36110;51.536;7.562;2023-05-07T13:00:41;10.68;;;8.45;;
50219;SDS011;36110;51.536;7.562;2023-05-07T13:03:08;10.52;;;7.88;;
50219;SDS011;36110;51.536;7.562;2023-05-07T13:05:33;8.40;;;6.00;;
50219;SDS011;36110;51.536;7.562;2023-05-07T13:07:59;8.15;;;6.50;;
50219;SDS011;36110;51.536;7.562;2023-05-07T13:10:25;6.80;;;5.05;;
50219;SDS011;36110;51.536;7.562;2023-05-07T13:12:51;5.63;;;5.13;;
50219;SDS011;36110;51.536;7.562;2023-05-07T13:15:16;6.80;;;6.15;;
50219;SDS011;36110;51.536;7.562;2023-05-07T13:17:42;8.85;;;5.45;;
50219;SDS011;36110;51.536;7.562;2023-05-07T13:20:09;7.43;;;6.72;;
50219;SDS011;36110;51.536;7.562;2023-05-07T13:22:35;6.82;;;6.13;;
50219;SDS011;36110;51.536;7.562;2023-05-07T13:25:00;8.90;;;6.18;;
50219;SDS011;36110;51.536;7.562;2023-05-07T13:27:26;9.30;;;6.55;;
50219;SDS011;36110;51.536;7.562;2023-05-07T13:29:51;7.78;;;6.97;;
50219;SDS011;36110;51.536;7.562;2023-05-07T13:32:17;7.40;;;6.68;;
50219;SDS011;36110;51.536;7.562;2023-05-07T13:34:42;12.98;;;6.70;;
50219;SDS011;36110;51.536;7.562;2023-05-07T13:37:07;7.55;;;6.50;;
50219;SDS011;36110;51.536;7.562;2023-05-07T13:39:33;7.78;;;6.40;;
50219;SDS011;36110;51.536;7.562;2023-05-07T13:41:58;7.70;;;6.60;;
50219;SDS011;36110;51.536;7.562;2023-05-07T13:44:23;7.82;;;6.10;;
50219;SDS011;36110;51.536;7.562;2023-05-07T13:46:49;7.53;;;6.10;;
50219;SDS011;36110;51.536;7.562;2023-05-07T13:49:15;6.78;;;5.53;;
50219;SDS011;36110;51.536;7.562;2023-05-07T13:51:40;10.32;;;5.72;;
50219;SDS011;36110;51.536;7.562;2023-05-07T13:54:05;8.65;;;5.93;;
50219;SDS011;36110;51.536;7.562;2023-05-07T13:56:31;8.73;;;5.90;;
50219;SDS011;36110;51.536;7.562;2023-05-07T13:58:57;7.18;;;5.90;;
50219;SDS011;36110;51.536;7.562;2023-05-07T14:01:23;6.88;;;6.10;;
50219;SDS011;36110;51.536;7.562;2023-05-07T14:03:48;7.28;;;5.80;;
50219;SDS011;36110;51.536;7.562;2023-05-07T14:06:13;7.30;;;6.13;;
50219;SDS011;36110;51.536;7.562;2023-05-07T14:08:39;7.13;;;6.28;;
50219;SDS011;36110;51.536;7.562;2023-05-07T14:11:04;6.80;;;6.05;;
50219;SDS011;36110;51.536;7.562;2023-05-07T14:13:29;7.32;;;6.63;;
50219;SDS011;36110;51.536;7.562;2023-05-07T14:15:55;7.38;;;6.47;;
50219;SDS011;36110;51.536;7.562;2023-05-07T14:18:21;7.28;;;6.10;;
50219;SDS011;36110;51.536;7.562;2023-05-07T14:20:46;7.60;;;6.43;;
50219;SDS011;36110;51.536;7.562;2023-05-07T14:23:13;8.10;;;6.78;;
50219;SDS011;36110;51.536;7.562;2023-05-07T14:25:39;7.47;;;6.63;;
50219;SDS011;36110;51.536;7.562;2023-05-07T14:28:04;6.72;;;6.13;;
50219;SDS011;36110;51.536;7.562;2023-05-07T14:30:29;11.32;;;5.90;;
50219;SDS011;36110;51.536;7.562;2023-05-07T14:32:55;7.78;;;6.13;;
50219;SDS011;36110;51.536;7.562;2023-05-07T14:35:20;5.88;;;5.28;;
50219;SDS011;36110;51.536;7.562;2023-05-07T14:37:45;6.72;;;6.03;;
50219;SDS011;36110;51.536;7.562;2023-05-07T14:40:11;6.55;;;5.95;;
50219;SDS011;36110;51.536;7.562;2023-05-07T14:42:36;8.85;;;6.30;;
50219;SDS011;36110;51.536;7.562;2023-05-07T14:45:02;7.70;;;6.40;;
50219;SDS011;36110;51.536;7.562;2023-05-07T14:47:27;14.43;;;6.57;;
50219;SDS011;36110;51.536;7.562;2023-05-07T14:49:52;10.88;;;6.93;;
50219;SDS011;36110;51.536;7.562;2023-05-07T14:52:19;7.63;;;6.72;;
50219;SDS011;36110;51.536;7.562;2023-05-07T14:54:44;7.90;;;7.05;;
50219;SDS011;36110;51.536;7.562;2023-05-07T14:57:10;7.47;;;6.68;;
50219;SDS011;36110;51.536;7.562;2023-05-07T14:59:38;7.82;;;6.85;;
50219;SDS011;36110;51.536;7.562;2023-05-07T15:02:03;9.85;;;7.25;;
50219;SDS011;36110;51.536;7.562;2023-05-07T15:04:30;9.73;;;7.15;;